sensor_id;sensor_type;location;lat;lon;timestamp;P1;durP1;ratioP1;P2;durP2;ratioP2
30307;SDS011;17114;52.314;8.910;2023-03-12T00:02:11;17.77;;;7.28;;
30307;SDS011;17114;52.314;8.910;2023-03-12T00:04:37;11.63;;;5.13;;
30307;SDS011;17114;52.314;8.910;2023-03-12T00:07:04;9.65;;;5.07;;
30307;SDS011;17114;52.314;8.910;2023-03-12T00:09:34;13.20;;;5.65;;
30307;SDS011;17114;52.314;8.910;2023-03-12T00:12:02;12.30;;;5.63;;
30307;SDS011;17114;52.314;8.910;2023-03-12T00:14:30;15.23;;;5.60;;
30307;SDS011;17114;52.314;8.910;2023-03-12T00:16:57;15.10;;;6.20;;
30307;SDS011;17114;52.314;8.910;2023-03-12T00:19:24;9.95;;;5.28;;
30307;SDS011;17114;52.314;8.910;2023-03-12T00:21:51;12.15;;;5.47;;
30307;SDS011;17114;52.314;8.910;2023-03-12T00:24:18;12.65;;;5.75;;
30307;SDS011;17114;52.314;8.910;2023-03-12T00:26:45;13.73;;;5.43;;
30307;SDS011;17114;52.314;8.910;2023-03-12T00:29:12;13.00;;;5.88;;
30307;SDS011;17114;52.314;8.910;2023-03-12T00:31:39;12.75;;;6.40;;
30307;SDS011;17114;52.314;8.910;2023-03-12T00:34:06;12.38;;;6.05;;
30307;SDS011;17114;52.314;8.910;2023-03-12T00:36:33;17.13;;;6.45;;
30307;SDS011;17114;52.314;8.910;2023-03-12T00:39:03;13.10;;;6.05;;
30307;SDS011;17114;52.314;8.910;2023-03-12T00:41:30;17.60;;;6.35;;
30307;SDS011;17114;52.314;8.910;2023-03-12T00:43:57;12.95;;;5.93;;
30307;SDS011;17114;52.314;8.910;2023-03-12T00:46:24;13.15;;;6.28;;
30307;SDS011;17114;52.314;8.910;2023-03-12T00:48:51;13.88;;;6.32;;
30307;SDS011;17114;52.314;8.910;2023-03-12T00:51:18;18.55;;;6.47;;
30307;SDS011;17114;52.314;8.910;2023-03-12T00:53:45;16.42;;;7.05;;
30307;SDS011;17114;52.314;8.910;2023-03-12T00:56:12;15.85;;;8.05;;
30307;SDS011;17114;52.314;8.910;2023-03-12T00:58:39;17.98;;;7.32;;
30307;SDS011;17114;52.314;8.910;2023-03-12T01:01:08;18.50;;;8.20;;
30307;SDS011;17114;52.314;8.910;2023-03-12T01:03:35;16.02;;;7.22;;
30307;SDS011;17114;52.314;8.910;2023-03-12T01:06:02;14.73;;;7.45;;
30307;SDS011;17114;52.314;8.910;2023-03-12T01:08:29;15.65;;;6.97;;
30307;SDS011;17114;52.314;8.910;2023-03-12T01:10:56;14.07;;;6.50;;
30307;SDS011;17114;52.314;8.910;2023-03-12T01:13:23;15.13;;;6.68;;
30307;SDS011;17114;52.314;8.910;2023-03-12T01:15:50;15.95;;;7.35;;
30307;SDS011;17114;52.314;8.910;2023-03-12T01:18:17;14.88;;;7.43;;
30307;SDS011;17114;52.314;8.910;2023-03-12T01:20:44;17.02;;;7.30;;
30307;SDS011;17114;52.314;8.910;2023-03-12T01:23:12;14.75;;;7.10;;
30307;SDS011;17114;52.314;8.910;2023-03-12T01:25:39;11.95;;;6.45;;
30307;SDS011;17114;52.314;8.910;2023-03-12T01:28:06;11.55;;;5.43;;
30307;SDS011;17114;52.314;8.910;2023-03-12T01:30:33;11.25;;;5.00;;
30307;SDS011;17114;52.314;8.910;2023-03-12T01:33:00;12.88;;;5.63;;
30307;SDS011;17114;52.314;8.910;2023-03-12T01:35:27;9.00;;;5.05;;
30307;SDS011;17114;52.314;8.910;2023-03-12T01:37:54;11.65;;;5.35;;
30307;SDS011;17114;52.314;8.910;2023-03-12T01:40:22;12.05;;;5.18;;
30307;SDS011;17114;52.314;8.910;2023-03-12T01:42:55;11.73;;;5.00;;
30307;SDS011;17114;52.314;8.910;2023-03-12T01:48:18;9.57;;;5.22;;
30307;SDS011;17114;52.314;8.910;2023-03-12T01:50:45;13.50;;;5.47;;
30307;SDS011;17114;52.314;8.910;2023-03-12T01:53:12;10.52;;;5.18;;
30307;SDS011;17114;52.314;8.910;2023-03-12T01:55:39;13.20;;;5.85;;
30307;SDS011;17114;52.314;8.910;2023-03-12T01:58:06;12.32;;;5.80;;
30307;SDS011;17114;52.314;8.910;2023-03-12T02:00:33;10.63;;;5.78;;
30307;SDS011;17114;52.314;8.910;2023-03-12T02:03:02;10.77;;;5.65;;
30307;SDS011;17114;52.314;8.910;2023-03-12T02:05:44;14.82;;;5.95;;
30307;SDS011;17114;52.314;8.910;2023-03-12T02:08:18;13.93;;;6.57;;
30307;SDS011;17114;52.314;8.910;2023-03-12T02:10:45;16.00;;;6.60;;
30307;SDS011;17114;52.314;8.910;2023-03-12T02:13:12;15.35;;;6.15;;
30307;SDS011;17114;52.314;8.910;2023-03-12T02:15:39;11.93;;;5.95;;
30307;SDS011;17114;52.314;8.910;2023-03-12T02:18:07;13.50;;;6.40;;
30307;SDS011;17114;52.314;8.910;2023-03-12T02:20:55;12.27;;;6.43;;
30307;SDS011;17114;52.314;8.910;2023-03-12T02:23:30;14.00;;;6.20;;
30307;SDS011;17114;52.314;8.910;2023-03-12T02:26:00;17.90;;;6.35;;
30307;SDS011;17114;52.314;8.910;2023-03-12T02:28:29;14.05;;;6.50;;
30307;SDS011;17114;52.314;8.910;2023-03-12T02:31:01;10.00;;;5.97;;
30307;SDS011;17114;52.314;8.910;2023-03-12T02:33:29;16.15;;;6.88;;
30307;SDS011;17114;52.314;8.910;2023-03-12T02:35:56;14.43;;;6.60;;
30307;SDS011;17114;52.314;8.910;2023-03-12T02:41:17;11.10;;;6.25;;
30307;SDS011;17114;52.314;8.910;2023-03-12T02:43:45;16.65;;;6.47;;
30307;SDS011;17114;52.314;8.910;2023-03-12T02:46:15;15.02;;;6.93;;
30307;SDS011;17114;52.314;8.910;2023-03-12T02:48:42;13.80;;;6.60;;
30307;SDS011;17114;52.314;8.910;2023-03-12T02:51:09;14.52;;;6.25;;
30307;SDS011;17114;52.314;8.910;2023-03-12T02:53:36;14.35;;;6.45;;
30307;SDS011;17114;52.314;8.910;2023-03-12T02:56:03;12.15;;;6.10;;
30307;SDS011;17114;52.314;8.910;2023-03-12T02:58:30;9.50;;;5.53;;
30307;SDS011;17114;52.314;8.910;2023-03-12T03:00:58;16.50;;;6.90;;
30307;SDS011;17114;52.314;8.910;2023-03-12T03:03:25;13.52;;;6.22;;
30307;SDS011;17114;52.314;8.910;2023-03-12T03:05:52;11.27;;;6.60;;
30307;SDS011;17114;52.314;8.910;2023-03-12T03:08:19;12.57;;;5.85;;
30307;SDS011;17114;52.314;8.910;2023-03-12T03:10:46;9.75;;;6.20;;
30307;SDS011;17114;52.314;8.910;2023-03-12T03:13:16;12.00;;;6.30;;
30307;SDS011;17114;52.314;8.910;2023-03-12T03:15:43;12.80;;;5.90;;
30307;SDS011;17114;52.314;8.910;2023-03-12T03:18:10;12.35;;;5.85;;
30307;SDS011;17114;52.314;8.910;2023-03-12T03:20:37;11.48;;;5.68;;
30307;SDS011;17114;52.314;8.910;2023-03-12T03:23:04;14.27;;;6.35;;
30307;SDS011;17114;52.314;8.910;2023-03-12T03:25:31;12.45;;;6.15;;
30307;SDS011;17114;52.314;8.910;2023-03-12T03:27:58;18.05;;;6.78;;
30307;SDS011;17114;52.314;8.910;2023-03-12T03:30:25;16.63;;;6.40;;
30307;SDS011;17114;52.314;8.910;2023-03-12T03:32:52;13.73;;;6.65;;
30307;SDS011;17114;52.314;8.910;2023-03-12T03:35:19;13.20;;;6.40;;
30307;SDS011;17114;52.314;8.910;2023-03-12T03:37:47;11.18;;;6.22;;
30307;SDS011;17114;52.314;8.910;2023-03-12T03:40:14;18.88;;;7.03;;
30307;SDS011;17114;52.314;8.910;2023-03-12T03:42:41;12.52;;;6.57;;
30307;SDS011;17114;52.314;8.910;2023-03-12T03:45:07;13.07;;;6.18;;
30307;SDS011;17114;52.314;8.910;2023-03-12T03:47:35;12.73;;;6.60;;
30307;SDS011;17114;52.314;8.910;2023-03-12T03:50:03;12.52;;;6.35;;
30307;SDS011;17114;52.314;8.910;2023-03-12T03:52:31;15.40;;;6.78;;
30307;SDS011;17114;52.314;8.910;2023-03-12T03:54:58;10.07;;;6.13;;
30307;SDS011;17114;52.314;8.910;2023-03-12T03:57:25;9.60;;;5.85;;
30307;SDS011;17114;52.314;8.910;2023-03-12T03:59:52;11.50;;;6.68;;
30307;SDS011;17114;52.314;8.910;2023-03-12T04:02:19;15.43;;;6.80;;
30307;SDS011;17114;52.314;8.910;2023-03-12T04:04:47;13.10;;;6.70;;
30307;SDS011;17114;52.314;8.910;2023-03-12T04:07:14;12.07;;;7.10;;
30307;SDS011;17114;52.314;8.910;2023-03-12T04:09:41;13.23;;;7.03;;
30307;SDS011;17114;52.314;8.910;2023-03-12T04:12:09;16.38;;;6.65;;
30307;SDS011;17114;52.314;8.910;2023-03-12T04:14:38;14.98;;;7.28;;
30307;SDS011;17114;52.314;8.910;2023-03-12T04:17:08;10.95;;;6.85;;
30307;SDS011;17114;52.314;8.910;2023-03-12T04:19:35;13.60;;;6.45;;
30307;SDS011;17114;52.314;8.910;2023-03-12T04:22:02;16.13;;;6.78;;
30307;SDS011;17114;52.314;8.910;2023-03-12T04:24:29;12.57;;;6.47;;
30307;SDS011;17114;52.314;8.910;2023-03-12T04:26:56;13.35;;;6.80;;
30307;SDS011;17114;52.314;8.910;2023-03-12T04:29:24;18.95;;;7.32;;
30307;SDS011;17114;52.314;8.910;2023-03-12T04:31:51;17.13;;;7.00;;
30307;SDS011;17114;52.314;8.910;2023-03-12T04:34:18;11.20;;;6.85;;
30307;SDS011;17114;52.314;8.910;2023-03-12T04:36:46;12.50;;;6.63;;
30307;SDS011;17114;52.314;8.910;2023-03-12T04:39:15;11.55;;;7.10;;
30307;SDS011;17114;52.314;8.910;2023-03-12T04:41:44;10.73;;;6.30;;
30307;SDS011;17114;52.314;8.910;2023-03-12T04:44:11;11.57;;;6.15;;
30307;SDS011;17114;52.314;8.910;2023-03-12T04:46:39;14.68;;;6.95;;
30307;SDS011;17114;52.314;8.910;2023-03-12T04:49:06;9.43;;;5.97;;
30307;SDS011;17114;52.314;8.910;2023-03-12T04:51:34;15.25;;;6.15;;
30307;SDS011;17114;52.314;8.910;2023-03-12T04:54:01;13.25;;;5.80;;
30307;SDS011;17114;52.314;8.910;2023-03-12T04:56:28;14.00;;;6.25;;
30307;SDS011;17114;52.314;8.910;2023-03-12T04:58:54;9.60;;;5.85;;
30307;SDS011;17114;52.314;8.910;2023-03-12T05:01:39;15.75;;;6.15;;
30307;SDS011;17114;52.314;8.910;2023-03-12T05:04:06;9.77;;;6.10;;
30307;SDS011;17114;52.314;8.910;2023-03-12T05:06:33;12.77;;;6.47;;
30307;SDS011;17114;52.314;8.910;2023-03-12T05:09:00;12.23;;;5.95;;
30307;SDS011;17114;52.314;8.910;2023-03-12T05:11:27;14.73;;;7.85;;
30307;SDS011;17114;52.314;8.910;2023-03-12T05:13:54;12.25;;;6.40;;
30307;SDS011;17114;52.314;8.910;2023-03-12T05:16:21;13.80;;;6.45;;
30307;SDS011;17114;52.314;8.910;2023-03-12T05:18:48;14.23;;;6.57;;
30307;SDS011;17114;52.314;8.910;2023-03-12T05:21:16;12.05;;;6.40;;
30307;SDS011;17114;52.314;8.910;2023-03-12T05:23:45;13.73;;;6.10;;
30307;SDS011;17114;52.314;8.910;2023-03-12T05:26:17;11.27;;;6.82;;
30307;SDS011;17114;52.314;8.910;2023-03-12T05:28:45;10.60;;;6.10;;
30307;SDS011;17114;52.314;8.910;2023-03-12T05:31:13;13.93;;;6.65;;
30307;SDS011;17114;52.314;8.910;2023-03-12T05:33:41;11.50;;;6.70;;
30307;SDS011;17114;52.314;8.910;2023-03-12T05:36:08;12.13;;;5.88;;
30307;SDS011;17114;52.314;8.910;2023-03-12T05:38:36;13.80;;;5.85;;
30307;SDS011;17114;52.314;8.910;2023-03-12T05:41:03;13.25;;;6.32;;
30307;SDS011;17114;52.314;8.910;2023-03-12T05:43:31;11.63;;;6.40;;
30307;SDS011;17114;52.314;8.910;2023-03-12T05:45:59;13.38;;;5.43;;
30307;SDS011;17114;52.314;8.910;2023-03-12T05:48:27;11.27;;;5.68;;
30307;SDS011;17114;52.314;8.910;2023-03-12T05:50:55;8.95;;;4.95;;
30307;SDS011;17114;52.314;8.910;2023-03-12T05:53:22;11.95;;;6.40;;
30307;SDS011;17114;52.314;8.910;2023-03-12T05:55:49;15.55;;;6.15;;
30307;SDS011;17114;52.314;8.910;2023-03-12T05:58:16;10.13;;;5.72;;
30307;SDS011;17114;52.314;8.910;2023-03-12T06:00:43;12.80;;;6.68;;
30307;SDS011;17114;52.314;8.910;2023-03-12T06:03:10;13.88;;;5.80;;
30307;SDS011;17114;52.314;8.910;2023-03-12T06:05:38;13.93;;;5.88;;
30307;SDS011;17114;52.314;8.910;2023-03-12T06:08:05;14.02;;;6.32;;
30307;SDS011;17114;52.314;8.910;2023-03-12T06:10:32;8.25;;;5.53;;
30307;SDS011;17114;52.314;8.910;2023-03-12T06:12:59;11.77;;;6.22;;
30307;SDS011;17114;52.314;8.910;2023-03-12T06:15:26;21.63;;;7.07;;
30307;SDS011;17114;52.314;8.910;2023-03-12T06:17:53;11.68;;;6.30;;
30307;SDS011;17114;52.314;8.910;2023-03-12T06:20:20;12.05;;;5.90;;
30307;SDS011;17114;52.314;8.910;2023-03-12T06:22:47;10.25;;;5.68;;
30307;SDS011;17114;52.314;8.910;2023-03-12T06:25:15;12.07;;;5.65;;
30307;SDS011;17114;52.314;8.910;2023-03-12T06:27:41;11.07;;;6.03;;
30307;SDS011;17114;52.314;8.910;2023-03-12T06:30:08;11.15;;;5.65;;
30307;SDS011;17114;52.314;8.910;2023-03-12T06:32:36;11.18;;;5.35;;
30307;SDS011;17114;52.314;8.910;2023-03-12T06:35:03;7.80;;;5.28;;
30307;SDS011;17114;52.314;8.910;2023-03-12T06:37:31;9.40;;;5.65;;
30307;SDS011;17114;52.314;8.910;2023-03-12T06:39:58;11.38;;;5.38;;
30307;SDS011;17114;52.314;8.910;2023-03-12T06:42:25;9.77;;;4.97;;
30307;SDS011;17114;52.314;8.910;2023-03-12T06:44:52;16.00;;;5.35;;
30307;SDS011;17114;52.314;8.910;2023-03-12T06:47:19;10.80;;;5.30;;
30307;SDS011;17114;52.314;8.910;2023-03-12T06:49:46;11.10;;;4.80;;
30307;SDS011;17114;52.314;8.910;2023-03-12T06:52:12;10.90;;;5.03;;
30307;SDS011;17114;52.314;8.910;2023-03-12T06:54:39;12.15;;;4.93;;
30307;SDS011;17114;52.314;8.910;2023-03-12T06:57:06;10.20;;;5.03;;
30307;SDS011;17114;52.314;8.910;2023-03-12T06:59:33;8.55;;;4.50;;
30307;SDS011;17114;52.314;8.910;2023-03-12T07:02:04;17.40;;;5.63;;
30307;SDS011;17114;52.314;8.910;2023-03-12T07:04:31;6.68;;;4.25;;
30307;SDS011;17114;52.314;8.910;2023-03-12T07:06:58;7.22;;;4.35;;
30307;SDS011;17114;52.314;8.910;2023-03-12T07:09:25;9.18;;;4.55;;
30307;SDS011;17114;52.314;8.910;2023-03-12T07:11:52;14.00;;;4.43;;
30307;SDS011;17114;52.314;8.910;2023-03-12T07:14:19;9.20;;;4.55;;
30307;SDS011;17114;52.314;8.910;2023-03-12T07:16:46;11.82;;;6.50;;
30307;SDS011;17114;52.314;8.910;2023-03-12T07:19:13;17.33;;;8.43;;
30307;SDS011;17114;52.314;8.910;2023-03-12T07:21:40;25.02;;;11.57;;
30307;SDS011;17114;52.314;8.910;2023-03-12T07:24:07;18.02;;;8.02;;
30307;SDS011;17114;52.314;8.910;2023-03-12T07:26:35;23.40;;;9.82;;
30307;SDS011;17114;52.314;8.910;2023-03-12T07:29:02;21.42;;;8.27;;
30307;SDS011;17114;52.314;8.910;2023-03-12T07:31:30;14.20;;;7.38;;
30307;SDS011;17114;52.314;8.910;2023-03-12T07:33:57;21.88;;;9.65;;
30307;SDS011;17114;52.314;8.910;2023-03-12T07:36:24;10.93;;;5.15;;
30307;SDS011;17114;52.314;8.910;2023-03-12T07:38:51;17.38;;;8.00;;
30307;SDS011;17114;52.314;8.910;2023-03-12T07:41:18;11.27;;;6.45;;
30307;SDS011;17114;52.314;8.910;2023-03-12T07:43:45;8.63;;;5.05;;
30307;SDS011;17114;52.314;8.910;2023-03-12T07:46:12;12.48;;;5.32;;
30307;SDS011;17114;52.314;8.910;2023-03-12T07:48:39;10.48;;;4.57;;
30307;SDS011;17114;52.314;8.910;2023-03-12T07:51:09;12.07;;;4.88;;
30307;SDS011;17114;52.314;8.910;2023-03-12T07:53:36;8.27;;;4.28;;
30307;SDS011;17114;52.314;8.910;2023-03-12T07:56:03;12.57;;;4.45;;
30307;SDS011;17114;52.314;8.910;2023-03-12T07:58:30;9.70;;;5.13;;
30307;SDS011;17114;52.314;8.910;2023-03-12T08:00:58;6.50;;;3.80;;
30307;SDS011;17114;52.314;8.910;2023-03-12T08:03:25;7.00;;;3.67;;
30307;SDS011;17114;52.314;8.910;2023-03-12T08:05:58;7.18;;;3.60;;
30307;SDS011;17114;52.314;8.910;2023-03-12T08:08:28;10.52;;;4.25;;
30307;SDS011;17114;52.314;8.910;2023-03-12T08:10:56;8.60;;;4.00;;
30307;SDS011;17114;52.314;8.910;2023-03-12T08:13:24;8.25;;;3.70;;
30307;SDS011;17114;52.314;8.910;2023-03-12T08:15:52;11.18;;;4.55;;
30307;SDS011;17114;52.314;8.910;2023-03-12T08:18:20;8.32;;;4.57;;
30307;SDS011;17114;52.314;8.910;2023-03-12T08:20:50;7.18;;;3.65;;
30307;SDS011;17114;52.314;8.910;2023-03-12T08:23:19;16.55;;;4.15;;
30307;SDS011;17114;52.314;8.910;2023-03-12T08:25:47;13.40;;;4.45;;
30307;SDS011;17114;52.314;8.910;2023-03-12T08:28:16;8.10;;;4.78;;
30307;SDS011;17114;52.314;8.910;2023-03-12T08:30:53;12.07;;;5.05;;
30307;SDS011;17114;52.314;8.910;2023-03-12T08:33:21;10.30;;;4.63;;
30307;SDS011;17114;52.314;8.910;2023-03-12T08:35:48;9.73;;;4.00;;
30307;SDS011;17114;52.314;8.910;2023-03-12T08:38:15;11.25;;;3.85;;
30307;SDS011;17114;52.314;8.910;2023-03-12T08:40:43;13.45;;;4.25;;
30307;SDS011;17114;52.314;8.910;2023-03-12T08:43:10;14.90;;;3.90;;
30307;SDS011;17114;52.314;8.910;2023-03-12T08:45:37;9.82;;;3.92;;
30307;SDS011;17114;52.314;8.910;2023-03-12T08:48:04;5.03;;;3.38;;
30307;SDS011;17114;52.314;8.910;2023-03-12T08:50:31;9.07;;;3.70;;
30307;SDS011;17114;52.314;8.910;2023-03-12T08:52:59;7.97;;;3.67;;
30307;SDS011;17114;52.314;8.910;2023-03-12T08:55:25;11.48;;;3.67;;
30307;SDS011;17114;52.314;8.910;2023-03-12T08:57:55;7.15;;;3.33;;
30307;SDS011;17114;52.314;8.910;2023-03-12T09:00:22;9.27;;;3.70;;
30307;SDS011;17114;52.314;8.910;2023-03-12T09:02:52;8.30;;;3.13;;
30307;SDS011;17114;52.314;8.910;2023-03-12T09:05:41;9.77;;;2.75;;
30307;SDS011;17114;52.314;8.910;2023-03-12T09:11:22;9.85;;;3.33;;
30307;SDS011;17114;52.314;8.910;2023-03-12T09:13:54;6.95;;;3.63;;
30307;SDS011;17114;52.314;8.910;2023-03-12T09:16:41;7.00;;;3.38;;
30307;SDS011;17114;52.314;8.910;2023-03-12T09:19:08;9.30;;;4.82;;
30307;SDS011;17114;52.314;8.910;2023-03-12T09:21:36;10.05;;;3.75;;
30307;SDS011;17114;52.314;8.910;2023-03-12T09:24:03;8.65;;;3.13;;
30307;SDS011;17114;52.314;8.910;2023-03-12T09:26:30;8.52;;;3.45;;
30307;SDS011;17114;52.314;8.910;2023-03-12T09:29:27;9.02;;;3.22;;
30307;SDS011;17114;52.314;8.910;2023-03-12T09:32:03;8.43;;;3.88;;
30307;SDS011;17114;52.314;8.910;2023-03-12T09:34:59;6.50;;;3.22;;
30307;SDS011;17114;52.314;8.910;2023-03-12T09:38:02;13.10;;;3.78;;
30307;SDS011;17114;52.314;8.910;2023-03-12T09:40:30;6.97;;;3.35;;
30307;SDS011;17114;52.314;8.910;2023-03-12T09:45:50;11.27;;;3.55;;
30307;SDS011;17114;52.314;8.910;2023-03-12T09:48:22;11.15;;;3.70;;
30307;SDS011;17114;52.314;8.910;2023-03-12T09:51:13;10.65;;;3.17;;
30307;SDS011;17114;52.314;8.910;2023-03-12T09:53:47;7.82;;;3.30;;
30307;SDS011;17114;52.314;8.910;2023-03-12T09:56:24;6.47;;;2.83;;
30307;SDS011;17114;52.314;8.910;2023-03-12T09:58:55;7.18;;;2.90;;
30307;SDS011;17114;52.314;8.910;2023-03-12T10:15:32;9.15;;;3.40;;
30307;SDS011;17114;52.314;8.910;2023-03-12T10:21:00;10.77;;;3.15;;
30307;SDS011;17114;52.314;8.910;2023-03-12T10:23:52;8.05;;;3.70;;
30307;SDS011;17114;52.314;8.910;2023-03-12T10:26:37;6.03;;;3.30;;
30307;SDS011;17114;52.314;8.910;2023-03-12T10:34:39;6.95;;;3.97;;
30307;SDS011;17114;52.314;8.910;2023-03-12T10:37:29;8.52;;;4.22;;
30307;SDS011;17114;52.314;8.910;2023-03-12T10:40:05;12.63;;;4.28;;
30307;SDS011;17114;52.314;8.910;2023-03-12T10:42:34;9.57;;;4.35;;
30307;SDS011;17114;52.314;8.910;2023-03-12T10:45:40;10.77;;;4.60;;
30307;SDS011;17114;52.314;8.910;2023-03-12T10:49:29;8.35;;;4.80;;
30307;SDS011;17114;52.314;8.910;2023-03-12T10:52:03;13.52;;;4.85;;
30307;SDS011;17114;52.314;8.910;2023-03-12T10:57:40;10.02;;;5.32;;
30307;SDS011;17114;52.314;8.910;2023-03-12T11:00:19;11.32;;;5.22;;
30307;SDS011;17114;52.314;8.910;2023-03-12T11:03:22;8.68;;;4.28;;
30307;SDS011;17114;52.314;8.910;2023-03-12T11:06:36;8.25;;;4.90;;
30307;SDS011;17114;52.314;8.910;2023-03-12T11:10:01;12.85;;;6.20;;
30307;SDS011;17114;52.314;8.910;2023-03-12T11:12:39;12.68;;;6.20;;
30307;SDS011;17114;52.314;8.910;2023-03-12T11:15:26;12.65;;;7.03;;
30307;SDS011;17114;52.314;8.910;2023-03-12T11:18:19;9.45;;;6.05;;
30307;SDS011;17114;52.314;8.910;2023-03-12T11:20:47;12.68;;;7.18;;
30307;SDS011;17114;52.314;8.910;2023-03-12T11:23:22;20.15;;;7.68;;
30307;SDS011;17114;52.314;8.910;2023-03-12T11:25:59;13.85;;;6.70;;
30307;SDS011;17114;52.314;8.910;2023-03-12T11:28:33;12.37;;;7.77;;
30307;SDS011;17114;52.314;8.910;2023-03-12T11:31:14;12.43;;;7.05;;
30307;SDS011;17114;52.314;8.910;2023-03-12T11:33:52;15.02;;;7.03;;
30307;SDS011;17114;52.314;8.910;2023-03-12T11:42:13;12.57;;;8.05;;
30307;SDS011;17114;52.314;8.910;2023-03-12T12:01:44;17.35;;;9.90;;
30307;SDS011;17114;52.314;8.910;2023-03-12T12:04:52;16.75;;;9.98;;
30307;SDS011;17114;52.314;8.910;2023-03-12T12:10:35;20.95;;;11.90;;
30307;SDS011;17114;52.314;8.910;2023-03-12T12:25:10;14.38;;;11.15;;
30307;SDS011;17114;52.314;8.910;2023-03-12T12:27:46;15.15;;;10.80;;
30307;SDS011;17114;52.314;8.910;2023-03-12T12:33:59;14.10;;;10.25;;
30307;SDS011;17114;52.314;8.910;2023-03-12T12:36:30;15.70;;;10.30;;
30307;SDS011;17114;52.314;8.910;2023-03-12T12:39:05;15.02;;;9.88;;
30307;SDS011;17114;52.314;8.910;2023-03-12T12:41:43;15.07;;;9.82;;
30307;SDS011;17114;52.314;8.910;2023-03-12T12:44:20;14.85;;;10.32;;
30307;SDS011;17114;52.314;8.910;2023-03-12T12:46:52;15.15;;;9.77;;
30307;SDS011;17114;52.314;8.910;2023-03-12T12:49:35;13.63;;;8.95;;
30307;SDS011;17114;52.314;8.910;2023-03-12T12:52:20;13.15;;;9.10;;
30307;SDS011;17114;52.314;8.910;2023-03-12T12:54:54;13.27;;;9.20;;
30307;SDS011;17114;52.314;8.910;2023-03-12T13:02:55;19.00;;;10.80;;
30307;SDS011;17114;52.314;8.910;2023-03-12T13:05:28;13.45;;;9.70;;
30307;SDS011;17114;52.314;8.910;2023-03-12T13:08:30;12.88;;;9.23;;
30307;SDS011;17114;52.314;8.910;2023-03-12T13:10:57;16.10;;;10.57;;
30307;SDS011;17114;52.314;8.910;2023-03-12T13:13:46;15.18;;;11.75;;
30307;SDS011;17114;52.314;8.910;2023-03-12T13:27:40;13.45;;;10.13;;
30307;SDS011;17114;52.314;8.910;2023-03-12T13:33:10;13.07;;;9.80;;
30307;SDS011;17114;52.314;8.910;2023-03-12T13:35:41;12.02;;;8.07;;
30307;SDS011;17114;52.314;8.910;2023-03-12T13:38:35;16.30;;;10.40;;
30307;SDS011;17114;52.314;8.910;2023-03-12T13:41:05;18.75;;;10.60;;
30307;SDS011;17114;52.314;8.910;2023-03-12T13:46:05;15.88;;;10.85;;
30307;SDS011;17114;52.314;8.910;2023-03-12T13:48:46;16.15;;;11.77;;
30307;SDS011;17114;52.314;8.910;2023-03-12T13:51:22;18.05;;;12.13;;
30307;SDS011;17114;52.314;8.910;2023-03-12T13:53:57;17.70;;;11.88;;
30307;SDS011;17114;52.314;8.910;2023-03-12T13:56:28;17.20;;;11.65;;
30307;SDS011;17114;52.314;8.910;2023-03-12T14:01:39;19.23;;;12.65;;
30307;SDS011;17114;52.314;8.910;2023-03-12T14:04:13;19.20;;;12.93;;
30307;SDS011;17114;52.314;8.910;2023-03-12T14:06:53;17.33;;;11.90;;
30307;SDS011;17114;52.314;8.910;2023-03-12T14:09:55;19.38;;;12.82;;
30307;SDS011;17114;52.314;8.910;2023-03-12T14:18:21;16.92;;;11.90;;
30307;SDS011;17114;52.314;8.910;2023-03-12T14:20:55;16.75;;;12.13;;
30307;SDS011;17114;52.314;8.910;2023-03-12T14:23:26;18.10;;;12.63;;
30307;SDS011;17114;52.314;8.910;2023-03-12T14:26:05;16.75;;;12.70;;
30307;SDS011;17114;52.314;8.910;2023-03-12T14:28:51;18.67;;;13.10;;
30307;SDS011;17114;52.314;8.910;2023-03-12T14:31:26;14.07;;;9.47;;
30307;SDS011;17114;52.314;8.910;2023-03-12T14:36:43;18.17;;;13.25;;
30307;SDS011;17114;52.314;8.910;2023-03-12T14:39:32;16.65;;;12.85;;
30307;SDS011;17114;52.314;8.910;2023-03-12T14:42:05;22.20;;;14.38;;
30307;SDS011;17114;52.314;8.910;2023-03-12T14:44:37;18.50;;;13.25;;
30307;SDS011;17114;52.314;8.910;2023-03-12T14:47:09;19.55;;;14.65;;
30307;SDS011;17114;52.314;8.910;2023-03-12T14:49:44;22.45;;;14.82;;
30307;SDS011;17114;52.314;8.910;2023-03-12T14:52:13;24.58;;;16.05;;
30307;SDS011;17114;52.314;8.910;2023-03-12T14:54:52;28.38;;;18.02;;
30307;SDS011;17114;52.314;8.910;2023-03-12T14:57:24;31.10;;;20.00;;
30307;SDS011;17114;52.314;8.910;2023-03-12T14:59:55;32.33;;;21.15;;
30307;SDS011;17114;52.314;8.910;2023-03-12T15:02:25;34.00;;;21.40;;
30307;SDS011;17114;52.314;8.910;2023-03-12T15:04:55;35.17;;;21.90;;
30307;SDS011;17114;52.314;8.910;2023-03-12T15:07:35;35.22;;;22.17;;
30307;SDS011;17114;52.314;8.910;2023-03-12T15:10:05;36.88;;;23.50;;
30307;SDS011;17114;52.314;8.910;2023-03-12T15:12:42;37.85;;;23.70;;
30307;SDS011;17114;52.314;8.910;2023-03-12T15:18:27;38.78;;;25.13;;
30307;SDS011;17114;52.314;8.910;2023-03-12T15:20:56;44.60;;;24.70;;
30307;SDS011;17114;52.314;8.910;2023-03-12T15:23:31;42.85;;;26.70;;
30307;SDS011;17114;52.314;8.910;2023-03-12T15:26:09;43.13;;;26.98;;
30307;SDS011;17114;52.314;8.910;2023-03-12T15:28:37;43.17;;;28.73;;
30307;SDS011;17114;52.314;8.910;2023-03-12T15:31:07;48.05;;;27.75;;
30307;SDS011;17114;52.314;8.910;2023-03-12T15:33:37;50.22;;;28.65;;
30307;SDS011;17114;52.314;8.910;2023-03-12T15:38:44;47.08;;;28.05;;
30307;SDS011;17114;52.314;8.910;2023-03-12T15:41:45;47.42;;;29.63;;
30307;SDS011;17114;52.314;8.910;2023-03-12T15:44:18;55.03;;;31.67;;
30307;SDS011;17114;52.314;8.910;2023-03-12T15:46:52;49.67;;;29.42;;
30307;SDS011;17114;52.314;8.910;2023-03-12T15:49:24;51.97;;;30.92;;
30307;SDS011;17114;52.314;8.910;2023-03-12T15:54:31;51.47;;;29.55;;
30307;SDS011;17114;52.314;8.910;2023-03-12T15:57:10;47.63;;;27.65;;
30307;SDS011;17114;52.314;8.910;2023-03-12T15:59:49;43.75;;;25.60;;
30307;SDS011;17114;52.314;8.910;2023-03-12T16:02:47;41.75;;;25.02;;
30307;SDS011;17114;52.314;8.910;2023-03-12T16:05:18;41.97;;;23.90;;
30307;SDS011;17114;52.314;8.910;2023-03-12T16:07:48;42.38;;;24.17;;
30307;SDS011;17114;52.314;8.910;2023-03-12T16:10:17;44.08;;;24.92;;
30307;SDS011;17114;52.314;8.910;2023-03-12T16:12:46;44.55;;;25.63;;
30307;SDS011;17114;52.314;8.910;2023-03-12T16:15:17;44.38;;;25.05;;
30307;SDS011;17114;52.314;8.910;2023-03-12T16:17:48;44.00;;;26.77;;
30307;SDS011;17114;52.314;8.910;2023-03-12T16:20:16;46.08;;;26.75;;
30307;SDS011;17114;52.314;8.910;2023-03-12T16:22:44;49.25;;;28.45;;
30307;SDS011;17114;52.314;8.910;2023-03-12T16:25:11;51.13;;;27.95;;
30307;SDS011;17114;52.314;8.910;2023-03-12T16:27:46;51.90;;;29.05;;
30307;SDS011;17114;52.314;8.910;2023-03-12T16:30:27;52.83;;;28.73;;
30307;SDS011;17114;52.314;8.910;2023-03-12T16:32:57;54.70;;;30.13;;
30307;SDS011;17114;52.314;8.910;2023-03-12T16:35:26;52.75;;;30.58;;
30307;SDS011;17114;52.314;8.910;2023-03-12T16:37:54;53.38;;;29.70;;
30307;SDS011;17114;52.314;8.910;2023-03-12T16:40:22;52.67;;;30.55;;
30307;SDS011;17114;52.314;8.910;2023-03-12T16:42:59;48.65;;;28.73;;
30307;SDS011;17114;52.314;8.910;2023-03-12T16:45:29;54.42;;;30.08;;
30307;SDS011;17114;52.314;8.910;2023-03-12T16:48:00;52.00;;;29.67;;
30307;SDS011;17114;52.314;8.910;2023-03-12T16:50:29;57.65;;;30.20;;
30307;SDS011;17114;52.314;8.910;2023-03-12T16:52:57;61.95;;;30.38;;
30307;SDS011;17114;52.314;8.910;2023-03-12T16:55:26;67.50;;;33.53;;
30307;SDS011;17114;52.314;8.910;2023-03-12T16:57:59;63.35;;;31.42;;
30307;SDS011;17114;52.314;8.910;2023-03-12T17:00:28;61.28;;;30.02;;